Date,TemperatureHighF,TemperatureAvgF,TemperatureLowF,DewpointHighF,DewpointAvgF,DewpointLowF,HumidityHigh,HumidityAvg,HumidityLow,PressureMaxIn,PressureMinIn,WindSpeedMaxMPH,WindSpeedAvgMPH,GustSpeedMaxMPH,PrecipitationSumIn
2012-1-1,48,42,35,42,38,33,97,87,68,30.07,29.58,14,2,18,0.00
2012-1-2,43,32,24,42,25,18,95,77,60,29.74,29.58,15,3,17,0.00
2012-1-3,24,14,3,20,5,-4,87,67,50,30.15,29.74,10,2,15,0.00
2012-1-4,19,10,0,12,3,-4,86,72,61,30.23,29.94,9,0,9,0.00
2012-1-5,30,23,18,25,17,12,90,78,68,29.95,29.81,23,1,23,0.00
2012-1-6,46,36,23,30,26,18,90,70,52,29.92,29.70,13,1,14,0.00
2012-1-7,48,39,31,35,32,28,90,76,59,29.95,29.66,11,1,12,0.00
2012-1-8,37,30,18,30,22,15,86,71,58,30.31,29.95,15,3,15,0.00
2012-1-9,38,28,17,18,16,14,91,64,40,30.32,29.93,10,1,12,0.00
2012-1-10,37,33,28,30,24,17,77,71,56,29.99,29.81,9,2,11,0.00
2012-1-11,41,33,25,29,26,22,92,77,57,30.09,29.93,14,1,14,0.00
2012-1-12,36,34,32,34,31,29,97,90,80,29.93,29.46,15,2,19,0.01
2012-1-13,41,32,23,39,28,17,96,87,74,29.65,29.13,17,4,19,0.00
2012-1-14,26,18,6,20,12,0,87,76,63,30.09,29.64,19,4,19,0.00
2012-1-15,11,3,-3,0,-4,-8,86,74,54,30.62,30.09,8,1,10,0.00
2012-1-16,27,14,-3,23,4,-7,91,69,33,30.63,30.10,15,2,19,0.00
2012-1-17,43,35,27,42,33,23,95,92,84,30.11,29.42,18,3,18,0.00
2012-1-18,45,24,10,42,16,6,93,74,58,30.17,29.43,19,4,22,0.00
2012-1-19,28,18,4,24,9,-1,91,71,32,30.26,29.93,16,2,16,0.00
2012-1-20,26,18,11,24,10,2,91,70,49,30.32,29.93,13,2,13,0.00
2012-1-21,16,12,4,13,8,1,91,83,58,30.39,30.14,5,0,5,0.00
2012-1-22,28,15,1,24,10,-2,93,81,67,30.58,30.39,9,1,10,0.00
2012-1-23,48,38,28,47,36,24,96,89,81,30.44,29.81,21,2,21,0.00
2012-1-24,48,38,31,46,36,27,97,90,78,30.10,29.80,13,2,21,0.00
2012-1-25,32,30,28,27,26,25,92,86,81,30.28,30.09,15,3,17,0.00
2012-1-26,34,30,27,33,28,26,97,93,82,30.23,29.84,7,0,7,0.00
2012-1-27,49,40,33,48,39,30,98,94,88,29.84,29.28,22,3,22,0.00
2012-1-28,41,35,30,31,28,20,92,74,59,29.99,29.78,16,2,16,0.00
2012-1-29,36,31,27,22,19,16,76,61,47,30.08,29.92,13,2,16,0.00
2012-1-30,33,26,19,28,19,14,93,73,54,30.27,29.91,15,2,17,0.00
2012-1-31,51,40,24,33,26,18,91,59,45,30.26,29.94,14,2,14,0.00
2012-2-1,51,44,36,45,36,31,94,74,54,30.01,29.77,20,2,20,0.00
2012-2-2,36,30,22,31,25,17,87,83,78,30.28,29.99,11,1,13,0.00
2012-2-3,34,26,18,27,19,13,88,75,55,30.46,30.28,8,1,10,0.00
2012-2-4,35,30,19,29,23,14,90,76,61,30.31,30.15,11,2,13,0.00
2012-2-5,30,21,13,17,14,10,90,76,57,30.21,30.13,9,1,9,0.00
2012-2-6,46,33,21,28,24,17,87,69,43,30.15,29.91,8,1,10,0.00
2012-2-7,40,33,20,30,25,13,81,73,54,30.27,29.95,12,2,13,0.00
2012-2-8,31,23,12,19,14,9,89,69,51,30.33,30.10,6,0,6,0.00
2012-2-9,39,29,22,24,19,16,84,68,41,30.13,30.05,11,2,14,0.00
2012-2-10,22,21,20,18,17,17,86,84,82,30.12,30.11,0,0,1,0.00
2012-2-11,34,26,12,27,21,3,92,81,69,29.90,29.64,16,1,16,0.01
2012-2-12,20,12,6,8,3,-2,84,68,56,29.93,29.75,19,3,19,0.01
2012-2-13,35,25,13,23,18,6,90,76,57,30.01,29.88,14,2,15,0.00
2012-2-14,36,31,21,27,20,12,82,65,40,30.09,30.01,7,0,10,0.00
2012-2-15,38,34,31,33,29,20,92,81,51,30.28,30.06,11,1,11,0.00
2012-2-16,40,32,24,35,29,22,96,88,65,30.29,29.96,12,1,13,0.00
2012-2-17,41,36,30,36,30,22,97,79,50,30.00,29.92,20,2,20,0.00
2012-2-18,37,31,25,30,26,21,96,83,54,30.02,29.86,12,1,12,0.00
2012-2-19,36,28,20,29,22,17,96,78,54,30.12,30.01,9,1,10,0.00
2012-2-20,36,26,19,18,16,14,85,68,41,30.35,30.04,13,1,15,0.00
2012-2-21,39,30,16,32,20,13,91,70,41,30.38,29.81,14,2,15,0.00
2012-2-22,50,43,37,35,30,25,84,62,39,29.81,29.43,13,2,14,0.00
2012-2-23,45,37,29,38,31,25,95,79,59,29.78,29.35,15,2,15,0.00
2012-2-24,35,33,29,34,30,25,96,88,77,29.77,29.29,9,1,12,0.00
2012-2-25,35,30,23,32,23,15,93,74,64,29.97,29.28,28,6,28,0.00
2012-2-26,31,23,16,16,11,8,79,63,39,30.46,29.97,15,2,15,0.00
2012-2-27,44,35,19,30,23,14,83,63,53,30.45,30.03,18,3,27,0.00
2012-2-29,32,32,30,30,29,29,95,92,88,29.97,29.82,10,1,10,0.00
2012-3-1,34,31,27,30,27,23,94,87,81,29.98,29.70,16,1,16,0.00
2012-3-2,38,31,27,30,27,23,92,85,73,30.08,29.75,21,2,21,0.00
2012-3-3,51,40,32,43,32,18,93,75,29,29.76,29.38,25,4,25,0.00
2012-3-4,39,31,23,26,21,17,80,66,49,29.71,29.55,15,2,15,0.00
2012-3-5,26,20,13,18,11,8,83,69,53,30.40,29.71,18,4,18,0.00
2012-3-6,35,23,8,16,9,4,90,59,32,30.62,30.39,12,1,12,0.00
2012-3-7,57,45,33,34,27,16,65,49,36,30.51,30.20,19,3,19,0.00
2012-3-8,64,54,35,51,44,33,93,70,55,30.21,29.66,20,4,20,0.01
2012-3-9,39,32,25,33,25,18,94,76,48,30.23,29.87,18,3,18,0.01
2012-3-10,36,27,21,21,18,16,81,70,51,30.50,30.22,14,2,14,0.00
2012-3-11,57,41,28,30,22,14,66,48,31,30.46,30.28,13,2,13,0.00
2012-3-12,67,51,32,38,31,27,81,50,24,30.30,30.07,9,1,9,0.00
2012-3-13,67,56,46,56,46,36,88,69,44,30.08,29.85,12,1,12,0.01
2012-3-14,54,46,34,44,37,30,90,71,48,30.21,29.96,16,2,16,0.01
2012-3-15,56,42,30,47,38,28,95,85,54,30.31,30.18,9,1,9,0.01
2012-3-16,48,44,39,47,42,37,97,94,87,30.22,30.08,12,1,12,0.01
2012-3-17,61,49,43,46,42,39,97,79,47,30.35,30.19,10,1,10,0.00
2012-3-18,73,56,41,53,47,39,96,73,41,30.30,30.13,7,1,7,0.00
2012-3-19,75,61,46,56,51,45,95,71,46,30.19,30.11,9,1,9,0.00
2012-3-20,77,64,51,56,51,48,91,67,40,30.28,30.18,11,1,11,0.00
2012-3-21,75,62,53,58,54,51,96,77,46,30.33,30.19,11,1,11,0.00
2012-3-22,76,62,49,57,54,48,98,76,47,30.22,30.03,9,1,9,0.00
2012-3-23,68,60,53,54,42,24,90,55,30,30.15,30.03,15,2,15,0.00
2012-3-24,55,51,45,41,30,20,84,45,27,30.09,29.98,7,1,7,0.01
2012-3-25,50,44,40,45,40,36,93,86,76,29.99,29.74,6,0,6,0.01
2012-3-26,48,38,26,46,23,4,93,58,31,30.11,29.67,20,3,20,0.00
2012-3-27,42,30,19,18,6,-4,57,37,15,30.30,30.11,14,2,14,0.00
2012-3-28,56,44,34,46,28,3,92,55,22,30.17,29.53,13,2,13,0.02
2012-3-29,47,38,35,43,35,28,96,87,77,29.98,29.59,12,2,12,0.02
2012-3-30,46,37,28,28,18,12,77,49,26,30.10,29.97,12,2,12,0.00
2012-3-31,45,38,32,32,28,19,86,68,48,30.00,29.87,8,1,8,0.00
2012-4-1,45,38,32,37,34,28,96,87,63,29.90,29.65,10,1,10,0.01
2012-4-2,51,39,30,35,26,9,97,66,21,29.87,29.64,17,2,17,0.01
2012-4-3,54,40,26,27,17,11,76,44,22,29.93,29.76,11,1,11,0.00
2012-4-4,55,43,34,36,26,14,84,54,31,29.78,29.55,21,2,21,0.01
2012-4-5,47,36,29,31,25,21,91,68,42,29.94,29.71,11,2,11,0.01
2012-4-6,50,37,26,26,22,14,88,57,27,30.05,29.93,12,2,12,0.01
2012-4-7,52,39,26,24,21,16,78,51,30,30.07,29.97,15,1,15,0.00
2012-4-8,56,42,31,32,26,24,78,55,35,30.01,29.64,18,2,18,0.00
2012-4-9,46,42,38,35,30,24,79,64,46,29.65,29.57,18,4,18,0.00
2012-4-10,54,45,38,30,27,23,73,51,39,29.79,29.59,15,2,15,0.00
2012-4-11,50,40,29,34,31,27,94,73,46,29.93,29.76,9,1,9,0.00
2012-4-12,53,44,36,37,33,28,90,67,40,30.11,29.92,19,2,19,0.00
2012-4-13,60,46,29,33,29,21,92,57,30,30.20,30.07,12,2,12,0.00
2012-4-14,67,51,34,41,31,26,76,49,22,30.19,29.97,10,1,10,0.00
2012-4-15,66,57,49,58,47,-100,96,74,45,29.99,29.90,8,-17,8,0.01
2012-4-16,86,72,57,59,54,47,97,60,28,29.98,29.79,5,2,12,0.00
2012-4-17,72,58,44,56,40,29,67,52,31,30.22,29.82,6,4,14,0.00
2012-4-18,52,42,32,35,30,26,91,65,43,30.28,30.12,3,1,8,0.00
2012-4-19,71,52,31,43,35,29,91,57,28,30.12,29.95,5,1,10,0.00
2012-4-20,76,63,50,51,45,38,76,55,27,29.97,29.80,6,2,14,0.00
2012-4-21,74,57,39,58,51,38,96,80,52,29.79,29.62,5,3,13,0.01
2012-4-22,39,37,35,38,36,34,97,96,91,29.86,29.58,4,2,10,0.00
2012-4-23,64,48,37,53,44,36,98,85,63,29.59,29.20,6,2,12,0.00
2012-4-24,51,42,36,38,35,32,90,77,52,29.64,29.27,6,3,14,0.03
2012-4-25,52,42,34,36,32,29,89,68,47,29.91,29.65,6,2,14,0.01
2012-4-26,57,45,29,49,36,27,95,72,38,29.93,29.56,5,2,10,0.04
2012-4-27,47,38,34,45,31,24,95,76,63,30.09,29.59,9,4,15,0.00
2012-4-28,50,38,28,28,22,15,81,53,28,30.21,30.08,5,2,12,0.00
2012-4-29,54,41,27,25,18,9,77,44,18,30.27,30.08,7,2,19,0.00
2012-4-30,59,46,28,34,24,15,77,45,26,30.35,30.13,4,1,7,0.00
2012-5-1,53,49,43,50,46,33,96,90,53,30.12,29.97,4,1,11,0.08
2012-5-2,57,51,48,50,48,46,98,90,76,30.14,30.07,4,1,7,0.00
2012-5-3,58,52,48,55,50,46,95,92,86,30.12,30.01,3,1,9,0.01
2012-5-4,72,61,52,63,57,51,97,87,66,30.06,29.86,4,2,9,0.01
2012-5-5,61,55,44,58,49,38,98,80,61,30.07,29.88,4,2,8,0.01
2012-5-6,67,53,38,52,41,28,96,68,27,30.11,30.04,4,1,7,0.00
2012-5-7,73,56,40,53,43,36,91,65,38,30.11,29.99,4,2,10,0.01
2012-5-8,57,52,46,56,50,43,95,93,89,30.01,29.79,5,3,15,0.00
2012-5-9,64,59,54,59,56,53,97,92,76,29.80,29.57,3,1,8,0.00
2012-5-10,54,48,42,53,45,41,97,89,73,29.75,29.48,5,2,12,0.00
2012-5-11,62,49,37,43,38,33,97,68,35,30.08,29.75,5,2,15,0.00
2012-5-12,76,56,36,49,41,34,95,62,28,30.20,30.07,5,1,10,0.00
2012-5-13,78,64,51,57,52,46,89,66,39,30.15,30.04,3,1,7,0.00
2012-5-14,70,61,57,61,57,54,97,89,68,30.11,30.05,5,1,11,0.00
2012-5-15,63,60,58,61,58,56,97,94,89,30.09,29.92,4,2,10,0.00
2012-5-16,78,64,51,64,58,45,98,85,47,29.95,29.72,4,1,10,0.00
2012-5-17,66,52,40,46,42,38,97,70,39,30.17,29.95,3,1,8,0.00
2012-5-18,72,54,38,50,43,36,97,70,33,30.25,30.14,8,1,8,0.00
2012-5-19,81,62,46,55,49,42,93,65,32,30.19,30.10,8,1,8,0.00
2012-5-20,83,67,52,63,55,50,94,69,38,30.23,30.14,7,1,7,0.00
2012-5-21,74,63,50,64,56,46,96,80,60,30.21,29.99,6,0,6,0.00
2012-5-22,70,64,60,64,62,60,97,92,76,29.99,29.80,5,0,5,0.00
2012-5-23,76,66,58,66,62,58,98,88,63,30.02,29.83,11,1,11,0.00
2012-5-24,76,67,60,65,62,58,98,86,66,30.15,30.02,9,1,9,0.00
2012-5-25,76,68,62,68,63,59,93,86,74,30.16,30.03,13,2,13,0.00
2012-5-26,82,71,59,69,60,50,97,74,37,30.11,30.04,7,1,8,0.00
2012-5-27,82,67,52,63,56,50,97,72,34,30.16,29.96,7,0,7,0.00
2012-5-28,85,73,61,71,65,60,98,77,50,29.98,29.80,10,1,10,0.00
2012-5-29,89,75,63,76,68,62,97,80,53,29.82,29.58,15,1,15,0.00
2012-5-30,77,66,60,64,62,56,98,89,55,29.75,29.66,8,0,8,0.00
2012-5-31,72,60,49,58,52,48,98,77,52,29.95,29.74,8,1,8,0.00
2012-6-1,71,60,47,57,51,45,96,74,51,30.02,29.80,13,1,13,0.00
2012-6-2,60,56,53,56,52,49,96,88,69,29.81,29.66,15,2,15,0.00
2012-6-3,67,56,48,58,53,47,98,89,55,29.75,29.62,6,0,6,0.00
2012-6-4,56,51,48,51,48,45,96,89,74,29.84,29.61,7,0,7,0.00
2012-6-5,61,52,46,53,49,45,97,89,70,29.94,29.82,6,0,6,0.00
2012-6-6,67,54,45,57,50,44,98,87,59,30.00,29.93,7,0,7,0.00
2012-6-7,69,57,46,58,52,45,98,84,56,29.98,29.91,7,0,7,0.00
2012-6-8,78,62,48,62,54,47,98,76,37,29.93,29.77,10,1,10,0.00
2012-6-9,70,61,53,62,57,52,98,88,69,29.97,29.81,7,0,7,0.00
2012-6-10,82,68,54,64,60,53,98,79,48,30.13,29.97,6,0,6,0.00
2012-6-11,78,70,63,65,59,51,85,70,55,30.18,30.10,14,2,14,0.00
2012-6-12,69,64,60,62,58,48,96,82,64,30.11,29.86,14,2,14,0.00
2012-6-13,75,64,54,62,58,52,97,82,54,30.09,29.84,8,1,8,0.00
2012-6-14,75,62,49,59,53,48,97,75,52,30.25,30.09,9,1,9,0.00
2012-6-15,79,64,50,60,53,47,95,69,42,30.32,30.22,8,0,8,0.00
2012-6-16,80,67,55,63,56,49,86,68,48,30.32,30.16,8,1,8,0.00
2012-6-17,77,65,56,63,57,54,93,77,59,30.18,30.00,8,1,8,0.00
2012-6-18,72,62,54,59,54,50,90,78,57,30.10,30.02,9,1,9,0.00
2012-6-19,79,67,57,69,62,54,92,82,67,30.11,29.99,8,1,8,0.00
2012-6-20,92,82,69,77,71,66,91,71,53,30.03,29.90,8,1,8,0.00
2012-6-21,91,78,67,71,67,62,92,72,41,29.92,29.74,10,1,10,0.00
2012-6-22,85,74,64,70,66,61,97,78,50,29.80,29.73,8,1,8,0.00
2012-6-23,69,62,56,61,58,55,96,87,68,29.98,29.80,7,0,7,0.01
2012-6-24,81,66,52,61,56,49,98,73,39,30.00,29.85,8,0,8,0.00
2012-6-25,70,62,52,63,58,50,95,86,71,29.85,29.64,9,0,9,0.00
2012-6-26,61,55,51,57,53,49,96,92,82,29.71,29.66,8,0,8,0.00
2012-6-27,75,63,52,57,54,50,98,75,48,29.77,29.64,12,1,12,0.00
2012-6-28,74,59,53,61,55,52,97,88,63,29.79,29.76,7,0,7,0.00
2012-6-29,88,74,62,74,62,49,94,69,33,29.68,29.58,11,1,11,0.00
2012-6-30,85,72,58,64,59,55,92,67,40,29.73,29.65,8,1,8,0.00
2012-7-1,85,73,61,64,60,51,95,66,33,29.85,29.72,11,1,11,0.00
2012-7-2,80,69,59,65,61,56,98,77,44,29.90,29.83,7,1,7,0.00
2012-7-3,83,70,56,68,59,54,98,72,37,29.95,29.77,8,0,8,0.00
2012-7-4,86,74,66,72,67,59,98,82,57,29.79,29.66,8,1,8,0.00
2012-7-5,80,70,62,68,63,60,97,79,54,29.88,29.69,10,1,10,0.00
2012-7-6,86,71,57,73,63,56,98,77,42,29.93,29.82,6,0,6,0.00
2012-7-7,80,70,63,68,65,61,97,83,63,29.84,29.76,7,0,7,0.00
2012-7-8,84,69,58,67,60,54,98,75,39,29.89,29.81,8,1,8,0.00
2012-7-9,79,66,53,57,53,48,95,67,36,29.99,29.88,8,1,8,0.00
2012-7-10,56,55,54,51,50,50,85,84,83,29.99,29.98,0,0,0,0.00
2012-7-11,86,70,54,61,55,48,95,64,28,30.16,30.08,6,1,6,0.00
2012-7-12,88,76,66,66,61,57,83,63,37,30.16,30.07,5,1,5,0.00
2012-7-13,89,77,66,69,64,60,89,65,40,30.17,30.08,6,0,6,0.00
2012-7-14,88,76,66,68,65,62,92,70,46,30.18,30.05,9,1,9,0.01
2012-7-15,82,72,64,72,67,62,97,85,62,30.09,29.88,6,0,6,0.01
2012-7-16,84,74,67,72,69,66,98,85,60,29.88,29.75,7,1,7,0.00
2012-7-17,92,78,65,75,68,64,97,75,48,29.80,29.63,11,1,11,0.00
2012-7-18,82,74,65,73,68,58,98,84,61,29.90,29.70,8,0,8,0.00
2012-7-19,79,68,56,64,57,54,94,72,46,29.99,29.89,6,0,6,0.00
2012-7-20,72,65,58,61,57,50,95,75,63,30.06,29.97,5,0,5,0.00
2012-7-21,81,67,54,63,55,47,98,71,33,30.09,30.01,6,1,6,0.00
2012-7-22,86,73,62,64,60,54,86,65,39,30.11,30.02,9,1,9,0.00
2012-7-23,85,74,65,71,66,62,95,78,59,30.05,29.68,11,1,11,0.00
2012-7-24,83,70,57,71,64,54,98,83,49,29.77,29.57,11,1,11,0.00
2012-7-25,80,65,51,60,55,50,98,74,39,29.90,29.76,11,1,11,0.00
2012-7-26,85,71,62,71,65,54,94,80,61,29.78,29.55,10,1,10,0.00
2012-7-27,76,69,64,70,67,64,97,94,77,29.89,29.61,5,0,5,0.00
2012-7-28,76,68,63,70,66,63,99,94,76,29.95,29.88,5,0,5,0.00
2012-7-29,78,67,63,69,64,62,98,91,64,30.03,29.92,5,0,5,0.00
2012-7-30,82,70,60,70,64,59,98,83,59,30.08,30.01,7,1,7,0.00
2012-7-31,82,71,63,68,63,54,94,77,42,30.05,29.88,8,1,8,0.00
2012-8-1,83,72,63,69,66,60,93,82,54,29.88,29.78,8,1,8,0.00
2012-8-2,85,73,64,70,65,62,98,79,47,29.88,29.80,6,1,6,0.00
2012-8-3,89,76,64,70,66,62,95,73,46,30.06,29.87,6,0,6,0.00
2012-8-4,89,77,68,76,70,67,98,80,51,30.15,30.06,7,1,7,1.55
2012-8-5,85,76,69,75,71,66,97,85,67,30.13,29.84,17,3,17,0.71
2012-8-6,76,67,58,68,61,56,98,82,53,30.01,29.91,8,1,8,0.01
2012-8-7,82,66,53,63,57,52,98,78,39,30.02,29.93,8,0,8,0.00
2012-8-8,86,73,61,68,63,57,97,73,39,29.98,29.90,7,0,7,0.00
2012-8-9,86,76,69,72,67,63,93,75,53,29.92,29.80,9,1,9,0.00
2012-8-10,75,70,66,72,67,65,97,93,80,29.85,29.75,6,0,6,0.75
2012-8-11,78,71,65,73,68,64,98,92,79,29.86,29.78,8,0,8,0.31
2012-8-12,80,70,64,68,65,62,98,85,60,29.91,29.84,7,0,7,0.00
2012-8-13,76,67,60,66,62,58,98,85,64,29.97,29.90,7,1,7,0.00
2012-8-14,76,67,57,66,62,56,99,83,66,29.95,29.86,6,0,6,0.00
2012-8-15,77,69,63,68,65,62,97,88,66,29.89,29.81,5,0,5,0.09
2012-8-16,80,68,60,65,62,58,98,85,51,29.91,29.81,8,0,8,0.01
2012-8-17,81,67,57,71,62,57,98,86,60,29.86,29.74,10,1,10,0.04
2012-8-18,73,63,54,60,56,50,98,79,46,29.94,29.83,10,1,10,0.03
2012-8-19,74,59,48,59,52,46,98,79,43,29.99,29.90,7,0,7,0.00
2012-8-20,79,63,52,61,57,51,98,82,48,29.93,29.83,8,0,8,0.02
2012-8-21,76,64,53,60,56,51,98,78,46,30.09,29.91,9,1,9,0.01
2012-8-22,80,64,50,62,55,49,97,76,43,30.15,30.08,7,0,7,0.00
2012-8-23,82,69,59,64,59,56,96,74,46,30.14,30.07,7,1,7,0.00
2012-8-24,84,68,55,65,58,53,97,75,41,30.18,30.12,7,0,7,0.00
2012-8-25,84,70,58,67,62,56,95,76,48,30.26,30.17,8,0,8,0.00
2012-8-26,82,70,61,67,60,53,92,72,53,30.30,30.17,7,0,7,0.00
2012-8-27,81,71,63,69,65,57,94,82,65,30.18,29.89,11,2,11,0.00
2012-8-28,78,68,60,70,64,54,98,88,61,29.91,29.76,9,0,9,0.62
2012-8-29,72,59,49,55,50,45,97,74,43,30.02,29.90,8,1,8,0.00
2012-8-30,78,61,46,61,53,44,98,77,47,30.08,30.00,9,1,9,0.00
2012-8-31,85,71,54,66,59,52,95,69,45,30.02,29.82,9,1,9,0.00
2012-9-1,72,71,70,65,65,64,83,81,79,29.88,29.87,2,0,2,0.00
2012-9-2,80,67,59,63,57,50,96,71,39,30.09,30.03,8,1,8,0.00
2012-9-3,80,66,54,61,56,52,95,72,45,30.16,30.08,9,1,9,0.00
2012-9-4,77,70,64,70,64,51,93,82,58,30.08,29.74,10,1,10,0.00
2012-9-5,73,68,60,70,65,59,97,90,74,29.84,29.67,12,1,12,0.37
2012-9-6,80,68,58,68,63,57,99,86,61,29.89,29.81,7,0,7,0.00
2012-9-7,83,71,62,68,65,59,98,82,52,29.92,29.80,7,0,7,0.00
2012-9-8,77,67,57,69,64,57,97,89,69,29.81,29.54,19,2,19,0.69
2012-9-9,70,59,49,58,54,49,98,85,58,29.89,29.73,6,0,6,0.01
2012-9-10,62,53,43,51,46,41,98,80,54,30.12,29.89,9,1,9,0.00
2012-9-11,67,52,39,50,44,38,98,79,42,30.28,30.12,6,0,6,0.00
2012-9-12,78,62,47,60,53,46,98,74,42,30.35,30.28,7,0,7,0.00
2012-9-13,81,66,52,61,56,50,96,72,41,30.33,30.23,6,0,6,0.00
2012-9-14,79,67,55,63,58,53,96,73,44,30.24,30.02,15,1,15,0.00
2012-9-15,66,58,47,57,51,45,96,79,52,30.10,30.02,9,1,9,0.12
2012-9-16,67,53,44,52,46,41,98,79,44,30.11,30.03,8,1,8,0.00
2012-9-17,76,59,44,57,50,43,98,77,43,30.10,29.99,6,1,6,0.00
2012-9-18,69,64,60,67,61,52,97,90,73,29.99,29.50,20,3,20,1.46
2012-9-19,64,53,42,62,47,41,97,82,51,30.20,29.66,8,1,8,0.11
2012-9-20,65,53,41,52,45,40,97,78,53,30.24,30.10,8,1,8,0.00
2012-9-21,72,60,50,58,53,48,95,79,56,30.10,29.98,9,1,9,0.00
2012-9-22,70,60,53,62,56,50,97,86,75,29.98,29.74,13,2,13,0.82
2012-9-23,62,52,41,56,46,38,97,81,44,30.11,29.81,10,1,10,0.00
2012-9-24,59,46,36,46,41,35,98,83,51,30.16,30.08,7,0,7,0.00
2012-9-25,67,56,44,48,43,39,88,64,44,30.13,30.06,12,1,12,0.00
2012-9-26,65,60,55,60,56,48,97,89,65,30.07,29.98,12,1,12,0.27
2012-9-27,63,55,46,60,49,43,98,83,53,30.21,30.01,9,1,9,0.00
2012-9-28,54,50,46,52,49,44,97,94,81,30.21,29.99,3,0,3,0.46
2012-9-29,54,52,50,53,51,50,98,96,94,29.99,29.88,4,0,4,0.03
2012-9-30,56,52,49,54,51,48,98,96,89,29.90,29.72,5,0,5,0.17
2012-10-1,58,53,49,54,51,48,97,92,84,29.96,29.68,11,1,11,0.00
2012-10-2,60,56,51,59,54,50,98,92,76,30.03,29.94,6,0,6,0.02
2012-10-3,72,63,58,68,62,57,99,96,88,30.10,30.00,5,0,5,0.02
2012-10-4,67,63,53,67,62,52,99,98,97,30.13,30.02,4,0,4,0.23
2012-10-5,74,61,51,61,56,50,99,86,58,30.04,29.88,7,0,7,0.02
2012-10-6,69,55,43,60,52,38,96,87,70,29.97,29.69,11,2,11,0.03
2012-10-7,50,45,40,42,39,36,89,79,68,30.09,29.96,5,0,5,0.00
2012-10-8,50,44,38,43,40,37,97,88,66,30.29,30.09,5,0,5,0.00
2012-10-9,55,47,36,48,43,35,98,88,72,30.28,30.09,6,0,7,0.00
2012-10-10,57,51,42,54,48,39,97,90,80,30.09,29.75,9,1,11,0.15
2012-10-11,52,43,39,40,37,35,92,79,53,30.14,29.87,10,1,12,0.15
2012-10-12,49,41,30,40,32,22,94,71,45,30.40,30.01,10,1,11,0.03
2012-10-13,48,38,25,31,26,23,94,65,41,30.49,30.23,9,1,10,0.03
2012-10-14,63,52,41,55,47,30,96,84,57,30.25,29.85,17,3,17,0.11
2012-10-15,60,59,58,51,50,50,75,73,70,29.85,29.81,13,5,13,0.11
2012-10-16,52,43,36,45,37,33,90,78,59,29.91,29.65,11,2,12,0.46
2012-10-17,36,34,33,33,32,31,94,92,90,29.93,29.91,0,0,0,0.00
2012-10-18,57,53,45,50,46,39,84,77,68,30.02,29.97,9,2,9,0.00
2012-10-19,63,59,54,61,57,50,97,92,80,29.98,29.63,16,2,16,0.96
2012-10-20,68,58,45,61,53,40,97,84,50,29.75,29.58,9,1,9,0.01
2012-10-21,56,50,43,46,42,39,89,76,57,29.95,29.75,13,2,14,0.01
2012-10-22,60,52,46,48,45,42,91,77,61,30.05,29.94,10,2,13,0.00
2012-10-23,56,48,39,48,43,37,97,86,66,30.14,30.05,4,0,5,0.00
2012-10-24,53,50,48,48,46,44,95,88,75,30.20,30.12,4,0,5,0.00
2012-10-25,63,54,48,54,49,44,93,84,70,30.26,30.18,11,1,11,0.00
2012-10-26,62,55,52,55,52,50,95,90,77,30.21,30.11,9,1,9,0.00
2012-10-27,60,55,48,55,52,47,97,89,81,30.12,29.97,5,0,5,0.00
2012-10-28,58,53,49,51,46,39,94,77,58,29.98,29.78,8,1,10,0.00
2012-10-29,62,54,50,58,50,44,93,85,76,29.78,29.05,23,4,23,0.46
2012-10-30,62,57,52,55,50,46,89,76,60,29.46,29.12,22,4,22,0.50
2012-10-31,54,45,41,50,40,36,95,84,70,29.52,29.39,12,2,13,0.07
2012-11-1,44,42,39,42,39,36,96,91,85,29.57,29.49,7,1,7,0.07
2012-11-2,46,40,36,40,36,33,95,86,70,29.70,29.56,13,2,15,0.01
2012-11-3,42,38,35,35,32,30,93,82,68,29.91,29.70,10,2,12,0.01
2012-11-4,39,36,32,31,30,26,88,79,69,30.00,29.91,8,2,10,0.00
2012-11-5,36,31,24,26,22,18,85,69,54,30.17,29.99,9,1,10,0.00
2012-11-6,38,28,20,22,19,16,91,70,44,30.26,30.14,8,1,8,0.00
2012-11-7,32,30,25,24,21,15,79,69,55,30.18,29.92,10,1,12,0.00
2012-11-8,34,32,29,29,26,24,84,81,76,29.95,29.84,18,3,18,0.00
2012-11-9,45,36,24,36,27,21,91,73,45,30.17,29.94,11,2,11,0.00
2012-11-10,50,42,34,38,35,31,96,78,49,30.40,30.16,8,1,10,0.00
2012-11-11,66,54,46,46,42,37,75,63,46,30.43,30.35,12,2,13,0.00
2012-11-12,66,59,55,56,48,42,84,67,55,30.38,30.08,18,4,19,0.00
2012-11-13,60,39,32,56,35,26,97,86,73,30.46,30.03,21,1,21,0.28
2012-11-14,41,32,26,28,25,23,92,77,53,30.59,30.46,10,1,10,0.01
2012-11-15,39,29,23,28,24,21,93,83,58,30.50,30.33,5,0,5,0.01
2012-11-16,36,28,22,30,25,20,96,88,76,30.50,30.33,6,0,7,0.01
2012-11-17,42,31,23,32,27,22,96,85,65,30.69,30.50,8,0,8,0.00
2012-11-18,44,31,23,32,26,21,94,82,53,30.72,30.60,6,0,6,0.01
2012-11-19,47,32,23,31,26,22,95,81,51,30.61,30.28,5,0,5,0.01
2012-11-20,44,34,26,32,28,24,95,82,56,30.28,30.15,5,0,6,0.01
2012-11-21,50,36,30,33,28,25,90,74,44,30.27,30.18,7,0,7,0.01
2012-11-22,55,39,27,36,30,24,92,72,40,30.28,30.10,6,0,7,0.00
2012-11-23,58,48,42,41,33,28,86,58,37,30.10,29.61,13,2,13,0.03
2012-11-24,43,32,26,38,24,18,82,70,58,29.75,29.61,21,4,21,0.03
2012-11-25,31,28,24,26,22,18,86,79,70,29.89,29.74,13,2,14,0.00
2012-11-26,39,32,26,29,26,23,90,77,58,30.24,29.87,15,2,15,0.00
2012-11-27,33,30,23,30,27,21,94,88,75,30.31,30.23,5,0,8,0.01
2012-11-28,35,29,23,28,24,20,95,79,61,30.24,30.15,6,1,7,0.01
2012-11-29,40,34,29,27,25,20,93,71,45,30.27,30.17,12,2,14,0.01
2012-11-30,37,25,22,27,17,14,88,74,58,30.52,30.23,9,1,11,0.01
2012-12-1,38,27,21,37,24,17,96,91,83,30.59,30.42,7,0,7,0.01
2012-12-2,50,44,38,43,41,37,96,90,78,30.43,30.01,18,3,18,0.22
2012-12-3,47,43,33,46,40,32,97,91,85,30.27,30.03,10,1,12,0.22
2012-12-4,56,49,33,52,47,32,98,91,85,30.26,29.85,17,3,17,0.00
2012-12-5,56,38,25,52,32,16,96,80,63,30.22,29.84,16,3,21,0.25
2012-12-6,32,24,19,21,18,15,90,78,63,30.40,30.21,8,1,9,0.00
2012-12-7,37,33,26,34,28,18,96,81,59,30.25,30.04,15,2,16,0.15
2012-12-8,44,40,35,43,39,34,98,97,94,30.04,29.84,7,0,9,0.01
2012-12-9,43,37,33,42,33,30,95,86,63,30.27,30.02,13,1,13,0.08
2012-12-10,51,45,35,50,44,34,98,96,93,30.04,29.50,16,2,16,0.36
2012-12-11,39,32,26,38,28,22,96,84,72,30.20,29.63,17,2,17,0.43
2012-12-12,37,28,21,28,24,19,96,86,69,30.44,30.19,7,0,7,0.00
2012-12-13,38,29,22,28,24,20,95,83,58,30.48,30.29,6,0,6,0.00
2012-12-14,41,33,24,32,27,22,93,79,52,30.29,30.15,15,1,15,0.01
2012-12-15,36,31,26,31,25,22,90,80,65,30.32,30.20,7,1,10,0.01
2012-12-16,34,32,28,30,28,24,95,85,76,30.23,29.97,9,1,9,0.00
2012-12-17,40,34,31,38,33,30,98,96,91,29.97,29.70,9,0,9,0.04
2012-12-18,42,39,35,41,38,34,98,96,92,29.70,29.44,14,2,21,0.12
2012-12-19,37,35,32,34,31,27,96,87,79,30.11,29.56,11,2,11,0.01
2012-12-20,39,32,24,32,28,22,96,85,68,30.24,29.85,11,1,15,0.01
2012-12-21,42,36,34,40,33,29,93,88,83,29.85,29.14,25,6,31,0.34
2012-12-22,34,27,24,30,22,17,92,80,71,29.76,29.19,18,4,18,0.34
2012-12-23,32,28,22,26,22,18,89,78,65,29.90,29.75,12,1,12,0.00
2012-12-24,33,28,25,25,21,18,85,75,61,30.10,29.90,11,1,13,0.00
2012-12-25,28,25,20,24,21,15,94,87,79,30.32,29.96,8,1,8,0.00
2012-12-26,30,20,12,28,16,10,94,84,57,30.37,29.80,13,1,13,0.00
2012-12-27,33,26,20,30,24,19,95,93,84,29.80,29.50,17,2,17,0.00
2012-12-28,27,23,20,24,21,18,95,91,86,30.10,29.80,9,1,11,0.00
2012-12-29,29,25,22,26,23,20,95,93,89,30.06,29.57,4,0,4,0.00
2012-12-30,22,18,12,21,14,8,95,85,71,30.17,29.59,16,2,16,0.01
2012-12-31,32,24,11,25,20,8,92,85,73,30.16,29.80,6,1,9,0.01
2013-1-1,31,22,5,27,16,2,88,77,71,29.98,29.77,12,3,13,0.01